sensor_id;sensor_type;location;lat;lon;timestamp;temperature;humidity
6234;DHT22;3150;52.374;9.724;2022-12-18T00:03:27;-4.70;99.90
6234;DHT22;3150;52.374;9.724;2022-12-18T00:12:18;-4.80;99.90
6234;DHT22;3150;52.374;9.724;2022-12-18T00:18:15;-4.80;99.90
6234;DHT22;3150;52.374;9.724;2022-12-18T00:26:50;-4.80;99.90
6234;DHT22;3150;52.374;9.724;2022-12-18T00:29:46;-3.60;99.90
6234;DHT22;3150;52.374;9.724;2022-12-18T00:35:32;-4.80;99.90
6234;DHT22;3150;52.374;9.724;2022-12-18T00:38:37;-4.80;99.90
6234;DHT22;3150;52.374;9.724;2022-12-18T00:50:21;-4.90;99.90
6234;DHT22;3150;52.374;9.724;2022-12-18T00:56:07;-4.90;99.90
6234;DHT22;3150;52.374;9.724;2022-12-18T00:59:01;-4.10;99.90
6234;DHT22;3150;52.374;9.724;2022-12-18T01:13:48;-4.80;99.90
6234;DHT22;3150;52.374;9.724;2022-12-18T01:22:23;-4.90;99.90
6234;DHT22;3150;52.374;9.724;2022-12-18T01:34:05;-5.00;99.90
6234;DHT22;3150;52.374;9.724;2022-12-18T01:39:39;-4.90;99.90
6234;DHT22;3150;52.374;9.724;2022-12-18T01:42:29;-2.20;99.90
6234;DHT22;3150;52.374;9.724;2022-12-18T01:45:24;-5.00;99.90
6234;DHT22;3150;52.374;9.724;2022-12-18T01:48:14;-5.10;99.90
6234;DHT22;3150;52.374;9.724;2022-12-18T01:51:07;-5.00;99.90
6234;DHT22;3150;52.374;9.724;2022-12-18T01:53:58;-5.10;99.90
6234;DHT22;3150;52.374;9.724;2022-12-18T01:56:50;-5.10;99.90
6234;DHT22;3150;52.374;9.724;2022-12-18T01:59:41;-4.50;99.90
6234;DHT22;3150;52.374;9.724;2022-12-18T02:02:31;-5.10;99.90
6234;DHT22;3150;52.374;9.724;2022-12-18T02:05:23;-5.10;99.90
6234;DHT22;3150;52.374;9.724;2022-12-18T02:08:21;-5.10;99.90
6234;DHT22;3150;52.374;9.724;2022-12-18T02:11:14;-5.10;99.90
6234;DHT22;3150;52.374;9.724;2022-12-18T02:14:11;-5.10;99.90
6234;DHT22;3150;52.374;9.724;2022-12-18T02:17:03;-5.20;99.90
6234;DHT22;3150;52.374;9.724;2022-12-18T02:19:59;-5.20;99.90
6234;DHT22;3150;52.374;9.724;2022-12-18T02:22:58;-5.20;99.90
6234;DHT22;3150;52.374;9.724;2022-12-18T02:25:58;-5.30;99.90
6234;DHT22;3150;52.374;9.724;2022-12-18T02:28:52;-5.30;99.90
6234;DHT22;3150;52.374;9.724;2022-12-18T02:31:43;-4.80;99.90
6234;DHT22;3150;52.374;9.724;2022-12-18T02:34:35;-5.40;99.90
6234;DHT22;3150;52.374;9.724;2022-12-18T02:37:26;-5.90;99.90
6234;DHT22;3150;52.374;9.724;2022-12-18T02:40:17;-5.40;99.90
6234;DHT22;3150;52.374;9.724;2022-12-18T02:43:11;-5.40;99.90
6234;DHT22;3150;52.374;9.724;2022-12-18T02:49:10;-5.50;99.90
6234;DHT22;3150;52.374;9.724;2022-12-18T02:52:05;-5.40;99.90
6234;DHT22;3150;52.374;9.724;2022-12-18T02:54:57;-5.50;99.90
6234;DHT22;3150;52.374;9.724;2022-12-18T02:57:50;-5.60;99.90
6234;DHT22;3150;52.374;9.724;2022-12-18T03:00:47;-5.60;99.90
6234;DHT22;3150;52.374;9.724;2022-12-18T03:03:38;-5.50;99.90
6234;DHT22;3150;52.374;9.724;2022-12-18T03:06:29;-5.60;99.90
6234;DHT22;3150;52.374;9.724;2022-12-18T03:09:22;-5.50;99.90
6234;DHT22;3150;52.374;9.724;2022-12-18T03:12:15;-5.50;99.90
6234;DHT22;3150;52.374;9.724;2022-12-18T03:15:13;-5.60;99.90
6234;DHT22;3150;52.374;9.724;2022-12-18T03:18:08;-5.60;99.90
6234;DHT22;3150;52.374;9.724;2022-12-18T03:21:00;-5.60;99.90
6234;DHT22;3150;52.374;9.724;2022-12-18T03:23:52;-4.90;99.90
6234;DHT22;3150;52.374;9.724;2022-12-18T03:26:43;-5.60;99.90
6234;DHT22;3150;52.374;9.724;2022-12-18T03:29:35;-4.50;99.90
6234;DHT22;3150;52.374;9.724;2022-12-18T03:32:28;-5.60;99.90
6234;DHT22;3150;52.374;9.724;2022-12-18T03:35:23;-5.50;99.90
6234;DHT22;3150;52.374;9.724;2022-12-18T03:38:14;-5.60;99.90
6234;DHT22;3150;52.374;9.724;2022-12-18T03:41:06;-5.50;99.90
6234;DHT22;3150;52.374;9.724;2022-12-18T03:43:57;-5.50;99.90
6234;DHT22;3150;52.374;9.724;2022-12-18T03:46:52;-4.70;99.90
6234;DHT22;3150;52.374;9.724;2022-12-18T03:49:46;-5.50;99.90
6234;DHT22;3150;52.374;9.724;2022-12-18T03:52:40;-5.20;99.90
6234;DHT22;3150;52.374;9.724;2022-12-18T03:55:32;-5.60;99.90
6234;DHT22;3150;52.374;9.724;2022-12-18T03:58:24;-5.60;99.90
6234;DHT22;3150;52.374;9.724;2022-12-18T04:01:15;-5.70;99.90
6234;DHT22;3150;52.374;9.724;2022-12-18T04:04:06;-5.60;99.90
6234;DHT22;3150;52.374;9.724;2022-12-18T04:06:59;-5.60;99.90
6234;DHT22;3150;52.374;9.724;2022-12-18T04:09:52;-5.60;99.90
6234;DHT22;3150;52.374;9.724;2022-12-18T04:12:43;-4.30;99.90
6234;DHT22;3150;52.374;9.724;2022-12-18T04:15:33;-5.50;99.90
6234;DHT22;3150;52.374;9.724;2022-12-18T04:18:24;-5.50;99.90
6234;DHT22;3150;52.374;9.724;2022-12-18T04:21:14;-5.50;99.90
6234;DHT22;3150;52.374;9.724;2022-12-18T04:24:04;-5.60;99.90
6234;DHT22;3150;52.374;9.724;2022-12-18T04:26:57;-5.60;99.90
6234;DHT22;3150;52.374;9.724;2022-12-18T04:29:47;-5.60;99.90
6234;DHT22;3150;52.374;9.724;2022-12-18T04:32:37;-5.60;99.90
6234;DHT22;3150;52.374;9.724;2022-12-18T04:35:27;-5.60;99.90
6234;DHT22;3150;52.374;9.724;2022-12-18T04:38:17;-5.60;99.90
6234;DHT22;3150;52.374;9.724;2022-12-18T04:41:07;-5.60;99.90
6234;DHT22;3150;52.374;9.724;2022-12-18T04:43:59;-5.60;99.90
6234;DHT22;3150;52.374;9.724;2022-12-18T04:46:49;-5.60;99.90
6234;DHT22;3150;52.374;9.724;2022-12-18T04:49:40;-5.60;99.90
6234;DHT22;3150;52.374;9.724;2022-12-18T04:52:30;-5.60;99.90
6234;DHT22;3150;52.374;9.724;2022-12-18T04:55:20;-4.30;99.90
6234;DHT22;3150;52.374;9.724;2022-12-18T04:58:10;-5.90;99.90
6234;DHT22;3150;52.374;9.724;2022-12-18T05:01:03;-5.70;99.90
6234;DHT22;3150;52.374;9.724;2022-12-18T05:03:54;-5.60;99.90
6234;DHT22;3150;52.374;9.724;2022-12-18T05:06:44;-5.60;99.90
6234;DHT22;3150;52.374;9.724;2022-12-18T05:09:34;-5.60;99.90
6234;DHT22;3150;52.374;9.724;2022-12-18T05:12:24;-5.60;99.90
6234;DHT22;3150;52.374;9.724;2022-12-18T05:15:14;-5.60;99.90
6234;DHT22;3150;52.374;9.724;2022-12-18T05:18:07;-5.60;99.90
6234;DHT22;3150;52.374;9.724;2022-12-18T05:20:57;-5.60;99.90
6234;DHT22;3150;52.374;9.724;2022-12-18T05:23:47;-5.60;99.90
6234;DHT22;3150;52.374;9.724;2022-12-18T05:26:37;-5.60;99.90
6234;DHT22;3150;52.374;9.724;2022-12-18T05:29:27;-5.60;99.90
6234;DHT22;3150;52.374;9.724;2022-12-18T05:32:17;-5.70;99.90
6234;DHT22;3150;52.374;9.724;2022-12-18T05:35:10;-5.70;99.90
6234;DHT22;3150;52.374;9.724;2022-12-18T05:38:00;-5.70;99.90
6234;DHT22;3150;52.374;9.724;2022-12-18T05:40:50;-5.50;99.90
6234;DHT22;3150;52.374;9.724;2022-12-18T05:43:40;-5.80;99.90
6234;DHT22;3150;52.374;9.724;2022-12-18T05:46:30;-5.80;99.90
6234;DHT22;3150;52.374;9.724;2022-12-18T05:49:20;-5.80;99.90
6234;DHT22;3150;52.374;9.724;2022-12-18T05:52:13;-4.20;99.90
6234;DHT22;3150;52.374;9.724;2022-12-18T05:55:04;-5.80;99.90
6234;DHT22;3150;52.374;9.724;2022-12-18T05:57:54;-5.70;99.90
6234;DHT22;3150;52.374;9.724;2022-12-18T06:00:44;-5.70;99.90
6234;DHT22;3150;52.374;9.724;2022-12-18T06:03:35;-5.70;99.90
6234;DHT22;3150;52.374;9.724;2022-12-18T06:06:26;-5.70;99.90
6234;DHT22;3150;52.374;9.724;2022-12-18T06:09:19;-5.60;99.90
6234;DHT22;3150;52.374;9.724;2022-12-18T06:12:09;-5.70;99.90
6234;DHT22;3150;52.374;9.724;2022-12-18T06:15:00;-5.70;99.90
6234;DHT22;3150;52.374;9.724;2022-12-18T06:17:50;-5.60;99.90
6234;DHT22;3150;52.374;9.724;2022-12-18T06:20:40;-5.60;99.90
6234;DHT22;3150;52.374;9.724;2022-12-18T06:23:30;-5.60;99.90
6234;DHT22;3150;52.374;9.724;2022-12-18T06:26:23;-5.60;99.90
6234;DHT22;3150;52.374;9.724;2022-12-18T06:29:14;-5.60;99.90
6234;DHT22;3150;52.374;9.724;2022-12-18T06:32:04;-5.60;99.90
6234;DHT22;3150;52.374;9.724;2022-12-18T06:34:54;-5.50;99.90
6234;DHT22;3150;52.374;9.724;2022-12-18T06:37:44;-5.50;99.90
6234;DHT22;3150;52.374;9.724;2022-12-18T06:40:36;-5.40;99.90
6234;DHT22;3150;52.374;9.724;2022-12-18T06:43:29;-5.40;99.90
6234;DHT22;3150;52.374;9.724;2022-12-18T06:46:19;-5.40;99.90
6234;DHT22;3150;52.374;9.724;2022-12-18T06:49:09;-4.40;99.90
6234;DHT22;3150;52.374;9.724;2022-12-18T06:51:59;-5.40;99.90
6234;DHT22;3150;52.374;9.724;2022-12-18T06:54:49;-6.00;99.90
6234;DHT22;3150;52.374;9.724;2022-12-18T06:57:39;-4.90;99.90
6234;DHT22;3150;52.374;9.724;2022-12-18T07:00:32;-5.30;99.90
6234;DHT22;3150;52.374;9.724;2022-12-18T07:03:22;-5.30;99.90
6234;DHT22;3150;52.374;9.724;2022-12-18T07:06:13;-5.30;99.90
6234;DHT22;3150;52.374;9.724;2022-12-18T07:09:07;-5.30;99.90
6234;DHT22;3150;52.374;9.724;2022-12-18T07:11:57;-5.30;99.90
6234;DHT22;3150;52.374;9.724;2022-12-18T07:14:47;-5.40;99.90
6234;DHT22;3150;52.374;9.724;2022-12-18T07:17:40;-5.30;99.90
6234;DHT22;3150;52.374;9.724;2022-12-18T07:20:30;-3.70;99.90
6234;DHT22;3150;52.374;9.724;2022-12-18T07:23:20;-5.30;99.90
6234;DHT22;3150;52.374;9.724;2022-12-18T07:26:10;-5.30;99.90
6234;DHT22;3150;52.374;9.724;2022-12-18T07:29:01;-4.00;99.90
6234;DHT22;3150;52.374;9.724;2022-12-18T07:31:51;-5.30;99.90
6234;DHT22;3150;52.374;9.724;2022-12-18T07:34:44;-5.30;99.90
6234;DHT22;3150;52.374;9.724;2022-12-18T07:37:34;-5.20;99.90
6234;DHT22;3150;52.374;9.724;2022-12-18T07:40:24;-5.20;99.90
6234;DHT22;3150;52.374;9.724;2022-12-18T07:43:14;-5.20;99.90
6234;DHT22;3150;52.374;9.724;2022-12-18T07:46:04;-5.20;99.90
6234;DHT22;3150;52.374;9.724;2022-12-18T07:48:55;-5.10;99.90
6234;DHT22;3150;52.374;9.724;2022-12-18T07:51:47;-5.10;99.90
6234;DHT22;3150;52.374;9.724;2022-12-18T07:54:38;-4.80;99.90
6234;DHT22;3150;52.374;9.724;2022-12-18T07:57:28;-4.80;99.90
6234;DHT22;3150;52.374;9.724;2022-12-18T08:00:38;-4.90;99.90
6234;DHT22;3150;52.374;9.724;2022-12-18T08:03:28;-4.90;99.90
6234;DHT22;3150;52.374;9.724;2022-12-18T08:06:18;-4.90;99.90
6234;DHT22;3150;52.374;9.724;2022-12-18T08:09:13;-4.90;99.90
6234;DHT22;3150;52.374;9.724;2022-12-18T08:12:03;-4.80;99.90
6234;DHT22;3150;52.374;9.724;2022-12-18T08:14:53;-4.80;99.90
6234;DHT22;3150;52.374;9.724;2022-12-18T08:17:43;-4.80;99.90
6234;DHT22;3150;52.374;9.724;2022-12-18T08:20:33;-4.40;99.90
6234;DHT22;3150;52.374;9.724;2022-12-18T08:23:24;-4.60;99.90
6234;DHT22;3150;52.374;9.724;2022-12-18T08:26:17;-4.50;99.90
6234;DHT22;3150;52.374;9.724;2022-12-18T08:29:08;-4.40;99.90
6234;DHT22;3150;52.374;9.724;2022-12-18T08:32:05;-4.30;99.90
6234;DHT22;3150;52.374;9.724;2022-12-18T08:34:56;-2.10;99.90
6234;DHT22;3150;52.374;9.724;2022-12-18T08:37:46;-3.70;99.90
6234;DHT22;3150;52.374;9.724;2022-12-18T08:40:37;-1.60;99.90
6234;DHT22;3150;52.374;9.724;2022-12-18T08:43:30;-0.20;99.90
6234;DHT22;3150;52.374;9.724;2022-12-18T08:46:33;1.20;99.90
6234;DHT22;3150;52.374;9.724;2022-12-18T08:49:24;2.30;99.90
6234;DHT22;3150;52.374;9.724;2022-12-18T08:52:14;3.30;89.10
6234;DHT22;3150;52.374;9.724;2022-12-18T08:55:04;3.70;80.70
6234;DHT22;3150;52.374;9.724;2022-12-18T08:57:55;4.50;66.40
6234;DHT22;3150;52.374;9.724;2022-12-18T09:00:47;4.10;67.30
6234;DHT22;3150;52.374;9.724;2022-12-18T09:03:38;4.40;63.30
6234;DHT22;3150;52.374;9.724;2022-12-18T09:06:29;4.80;62.80
6234;DHT22;3150;52.374;9.724;2022-12-18T09:09:19;5.70;62.00
6234;DHT22;3150;52.374;9.724;2022-12-18T09:12:09;5.00;60.10
6234;DHT22;3150;52.374;9.724;2022-12-18T09:14:59;4.90;59.60
6234;DHT22;3150;52.374;9.724;2022-12-18T09:17:52;4.70;60.00
6234;DHT22;3150;52.374;9.724;2022-12-18T09:20:42;4.30;60.80
6234;DHT22;3150;52.374;9.724;2022-12-18T09:23:32;3.60;67.10
6234;DHT22;3150;52.374;9.724;2022-12-18T09:26:23;4.40;74.10
6234;DHT22;3150;52.374;9.724;2022-12-18T09:29:14;3.80;73.70
6234;DHT22;3150;52.374;9.724;2022-12-18T09:32:05;4.10;67.60
6234;DHT22;3150;52.374;9.724;2022-12-18T09:34:57;3.90;68.70
6234;DHT22;3150;52.374;9.724;2022-12-18T09:37:48;3.50;71.70
6234;DHT22;3150;52.374;9.724;2022-12-18T09:40:40;3.40;74.50
6234;DHT22;3150;52.374;9.724;2022-12-18T09:43:33;3.60;73.60
6234;DHT22;3150;52.374;9.724;2022-12-18T09:46:26;4.10;72.30
6234;DHT22;3150;52.374;9.724;2022-12-18T09:49:17;4.40;68.80
6234;DHT22;3150;52.374;9.724;2022-12-18T09:52:12;4.90;64.10
6234;DHT22;3150;52.374;9.724;2022-12-18T09:55:09;5.50;62.20
6234;DHT22;3150;52.374;9.724;2022-12-18T09:58:02;5.30;60.80
6234;DHT22;3150;52.374;9.724;2022-12-18T10:00:54;4.80;61.20
6234;DHT22;3150;52.374;9.724;2022-12-18T10:09:43;3.40;69.10
6234;DHT22;3150;52.374;9.724;2022-12-18T10:12:39;2.50;90.90
6234;DHT22;3150;52.374;9.724;2022-12-18T10:15:31;2.20;97.60
6234;DHT22;3150;52.374;9.724;2022-12-18T10:18:26;2.10;97.00
6234;DHT22;3150;52.374;9.724;2022-12-18T10:21:20;1.80;99.90
6234;DHT22;3150;52.374;9.724;2022-12-18T10:24:14;2.60;99.90
6234;DHT22;3150;52.374;9.724;2022-12-18T10:27:13;2.50;99.20
6234;DHT22;3150;52.374;9.724;2022-12-18T10:30:07;3.00;92.10
6234;DHT22;3150;52.374;9.724;2022-12-18T10:33:01;3.30;88.90
6234;DHT22;3150;52.374;9.724;2022-12-18T10:35:51;4.10;89.10
6234;DHT22;3150;52.374;9.724;2022-12-18T10:38:42;2.80;94.10
6234;DHT22;3150;52.374;9.724;2022-12-18T10:44:20;2.90;98.80
6234;DHT22;3150;52.374;9.724;2022-12-18T10:47:12;1.60;93.90
6234;DHT22;3150;52.374;9.724;2022-12-18T10:50:04;3.30;95.30
6234;DHT22;3150;52.374;9.724;2022-12-18T10:52:54;3.40;90.70
6234;DHT22;3150;52.374;9.724;2022-12-18T10:55:45;3.40;92.10
6234;DHT22;3150;52.374;9.724;2022-12-18T11:01:20;3.30;92.40
6234;DHT22;3150;52.374;9.724;2022-12-18T11:04:15;2.90;93.80
6234;DHT22;3150;52.374;9.724;2022-12-18T11:07:06;2.70;97.80
6234;DHT22;3150;52.374;9.724;2022-12-18T11:10:00;3.00;99.90
6234;DHT22;3150;52.374;9.724;2022-12-18T11:12:50;1.80;99.90
6234;DHT22;3150;52.374;9.724;2022-12-18T11:15:41;1.60;99.90
6234;DHT22;3150;52.374;9.724;2022-12-18T11:18:34;2.70;99.90
6234;DHT22;3150;52.374;9.724;2022-12-18T11:21:29;2.60;99.90
6234;DHT22;3150;52.374;9.724;2022-12-18T11:24:20;1.40;99.90
6234;DHT22;3150;52.374;9.724;2022-12-18T11:27:15;2.80;99.90
6234;DHT22;3150;52.374;9.724;2022-12-18T11:30:07;1.00;99.90
6234;DHT22;3150;52.374;9.724;2022-12-18T11:32:59;1.00;99.90
6234;DHT22;3150;52.374;9.724;2022-12-18T11:38:45;1.20;99.90
6234;DHT22;3150;52.374;9.724;2022-12-18T11:44:35;1.30;99.90
6234;DHT22;3150;52.374;9.724;2022-12-18T11:47:29;1.90;99.90
6234;DHT22;3150;52.374;9.724;2022-12-18T11:50:24;1.40;99.90
6234;DHT22;3150;52.374;9.724;2022-12-18T11:53:14;1.20;99.90
6234;DHT22;3150;52.374;9.724;2022-12-18T11:56:11;1.10;99.90
6234;DHT22;3150;52.374;9.724;2022-12-18T11:59:08;2.40;99.90
6234;DHT22;3150;52.374;9.724;2022-12-18T12:14:01;1.10;99.90
6234;DHT22;3150;52.374;9.724;2022-12-18T12:25:33;0.80;99.90
6234;DHT22;3150;52.374;9.724;2022-12-18T12:28:31;0.90;99.90
6234;DHT22;3150;52.374;9.724;2022-12-18T12:31:36;0.70;99.90
6234;DHT22;3150;52.374;9.724;2022-12-18T12:34:30;3.40;99.90
6234;DHT22;3150;52.374;9.724;2022-12-18T12:37:25;-1.10;99.90
6234;DHT22;3150;52.374;9.724;2022-12-18T12:40:18;2.90;99.90
6234;DHT22;3150;52.374;9.724;2022-12-18T12:43:32;0.70;99.90
6234;DHT22;3150;52.374;9.724;2022-12-18T12:46:24;0.70;99.90
6234;DHT22;3150;52.374;9.724;2022-12-18T12:55:00;0.60;99.90
6234;DHT22;3150;52.374;9.724;2022-12-18T12:57:59;-2.10;99.90
6234;DHT22;3150;52.374;9.724;2022-12-18T13:00:53;0.40;99.90
6234;DHT22;3150;52.374;9.724;2022-12-18T13:03:48;1.10;99.90
6234;DHT22;3150;52.374;9.724;2022-12-18T13:06:43;0.40;99.90
6234;DHT22;3150;52.374;9.724;2022-12-18T13:15:42;0.50;99.90
6234;DHT22;3150;52.374;9.724;2022-12-18T13:18:33;0.30;99.90
6234;DHT22;3150;52.374;9.724;2022-12-18T13:30:02;0.20;99.90
6234;DHT22;3150;52.374;9.724;2022-12-18T13:32:57;0.10;99.90
6234;DHT22;3150;52.374;9.724;2022-12-18T13:36:23;0.70;99.90
6234;DHT22;3150;52.374;9.724;2022-12-18T13:39:22;-1.90;99.90
6234;DHT22;3150;52.374;9.724;2022-12-18T13:45:03;0.00;99.90
6234;DHT22;3150;52.374;9.724;2022-12-18T13:51:12;-0.10;99.90
6234;DHT22;3150;52.374;9.724;2022-12-18T13:54:15;0.90;99.90
6234;DHT22;3150;52.374;9.724;2022-12-18T13:57:23;1.40;99.90
6234;DHT22;3150;52.374;9.724;2022-12-18T14:03:16;-0.60;99.90
6234;DHT22;3150;52.374;9.724;2022-12-18T14:06:08;-0.60;99.90
6234;DHT22;3150;52.374;9.724;2022-12-18T14:11:59;-0.70;99.90
6234;DHT22;3150;52.374;9.724;2022-12-18T14:15:02;-0.70;99.90
6234;DHT22;3150;52.374;9.724;2022-12-18T14:20:53;-0.90;99.90
6234;DHT22;3150;52.374;9.724;2022-12-18T14:26:24;-0.90;99.90
6234;DHT22;3150;52.374;9.724;2022-12-18T14:29:24;-0.40;99.90
6234;DHT22;3150;52.374;9.724;2022-12-18T14:35:12;-1.30;99.90
6234;DHT22;3150;52.374;9.724;2022-12-18T14:38:10;-1.20;99.90
6234;DHT22;3150;52.374;9.724;2022-12-18T14:47:16;-1.40;99.90
6234;DHT22;3150;52.374;9.724;2022-12-18T14:50:11;-1.50;99.90
6234;DHT22;3150;52.374;9.724;2022-12-18T14:53:03;-1.60;99.90
6234;DHT22;3150;52.374;9.724;2022-12-18T14:55:53;-2.00;99.90
6234;DHT22;3150;52.374;9.724;2022-12-18T14:58:45;-0.50;99.90
6234;DHT22;3150;52.374;9.724;2022-12-18T15:04:38;-1.80;99.90
6234;DHT22;3150;52.374;9.724;2022-12-18T15:07:39;-2.00;99.90
6234;DHT22;3150;52.374;9.724;2022-12-18T15:10:30;-1.80;99.90
6234;DHT22;3150;52.374;9.724;2022-12-18T15:19:34;-1.80;99.90
6234;DHT22;3150;52.374;9.724;2022-12-18T15:22:30;-1.80;99.90
6234;DHT22;3150;52.374;9.724;2022-12-18T15:25:24;-2.00;99.90
6234;DHT22;3150;52.374;9.724;2022-12-18T15:28:20;-1.80;99.90
6234;DHT22;3150;52.374;9.724;2022-12-18T15:31:24;-2.50;99.90
6234;DHT22;3150;52.374;9.724;2022-12-18T15:34:19;-1.90;99.90
6234;DHT22;3150;52.374;9.724;2022-12-18T15:37:09;-1.90;99.90
6234;DHT22;3150;52.374;9.724;2022-12-18T15:40:03;-2.00;99.90
6234;DHT22;3150;52.374;9.724;2022-12-18T15:42:54;-2.10;99.90
6234;DHT22;3150;52.374;9.724;2022-12-18T15:45:57;-1.80;99.90
6234;DHT22;3150;52.374;9.724;2022-12-18T15:48:48;-2.20;99.90
6234;DHT22;3150;52.374;9.724;2022-12-18T15:51:45;-2.20;99.90
6234;DHT22;3150;52.374;9.724;2022-12-18T15:54:39;-2.20;99.90
6234;DHT22;3150;52.374;9.724;2022-12-18T15:57:44;-2.60;99.90
6234;DHT22;3150;52.374;9.724;2022-12-18T16:00:35;-2.20;99.90
6234;DHT22;3150;52.374;9.724;2022-12-18T16:03:26;-2.20;99.90
6234;DHT22;3150;52.374;9.724;2022-12-18T16:09:05;-2.20;99.90
6234;DHT22;3150;52.374;9.724;2022-12-18T16:11:55;-1.70;99.90
6234;DHT22;3150;52.374;9.724;2022-12-18T16:14:48;-2.10;99.90
6234;DHT22;3150;52.374;9.724;2022-12-18T16:17:38;-2.10;99.90
6234;DHT22;3150;52.374;9.724;2022-12-18T16:20:28;-2.00;99.90
6234;DHT22;3150;52.374;9.724;2022-12-18T16:23:19;-2.00;99.90
6234;DHT22;3150;52.374;9.724;2022-12-18T16:26:09;-1.70;99.90
6234;DHT22;3150;52.374;9.724;2022-12-18T16:29:02;-2.00;99.90
6234;DHT22;3150;52.374;9.724;2022-12-18T16:31:57;-2.00;99.90
6234;DHT22;3150;52.374;9.724;2022-12-18T16:34:48;-2.10;99.90
6234;DHT22;3150;52.374;9.724;2022-12-18T16:37:38;-1.70;99.90
6234;DHT22;3150;52.374;9.724;2022-12-18T16:40:28;-1.00;99.90
6234;DHT22;3150;52.374;9.724;2022-12-18T16:46:19;-2.00;99.90
6234;DHT22;3150;52.374;9.724;2022-12-18T16:49:13;-1.90;99.90
6234;DHT22;3150;52.374;9.724;2022-12-18T16:52:04;-2.00;99.90
6234;DHT22;3150;52.374;9.724;2022-12-18T16:54:54;-1.90;99.90
6234;DHT22;3150;52.374;9.724;2022-12-18T16:57:44;-1.90;99.90
6234;DHT22;3150;52.374;9.724;2022-12-18T17:00:35;-2.30;99.90
6234;DHT22;3150;52.374;9.724;2022-12-18T17:03:27;-1.80;99.90
6234;DHT22;3150;52.374;9.724;2022-12-18T17:06:20;-1.70;99.90
6234;DHT22;3150;52.374;9.724;2022-12-18T17:09:11;-1.70;99.90
6234;DHT22;3150;52.374;9.724;2022-12-18T17:12:01;-1.70;99.90
6234;DHT22;3150;52.374;9.724;2022-12-18T17:14:52;-1.50;99.90
6234;DHT22;3150;52.374;9.724;2022-12-18T17:17:42;-1.60;99.90
6234;DHT22;3150;52.374;9.724;2022-12-18T17:20:33;-1.50;99.90
6234;DHT22;3150;52.374;9.724;2022-12-18T17:23:26;-1.40;99.90
6234;DHT22;3150;52.374;9.724;2022-12-18T19:16:05;-0.50;99.90
6234;DHT22;3150;52.374;9.724;2022-12-18T19:21:40;-0.40;99.90
6234;DHT22;3150;52.374;9.724;2022-12-18T19:24:31;-0.30;99.90
6234;DHT22;3150;52.374;9.724;2022-12-18T19:27:21;0.60;99.90
6234;DHT22;3150;52.374;9.724;2022-12-18T19:30:11;-0.30;99.90
6234;DHT22;3150;52.374;9.724;2022-12-18T19:33:05;0.00;99.90
6234;DHT22;3150;52.374;9.724;2022-12-18T19:36:17;-0.10;99.90
6234;DHT22;3150;52.374;9.724;2022-12-18T19:39:08;-0.10;99.90
6234;DHT22;3150;52.374;9.724;2022-12-18T19:41:59;1.00;99.90
6234;DHT22;3150;52.374;9.724;2022-12-18T19:44:53;-0.10;99.90
6234;DHT22;3150;52.374;9.724;2022-12-18T19:47:44;-0.10;99.90
